Grand Forks AFB, ND (58204)

9:45 AM CST on December 03, 2016 (GMT -0600)
Grand Forks Air Force Base | | Change Station

Elev 912 ft 47.96 °N, 97.40 °W | Updated 47 minutes ago

Overcast
Overcast
27 °F
Feels Like 16 °F
N
13
Wind Variable Wind from South

Today
High -- | Low -- °F
--% Chance of Precip.
Yesterday
High -- | Low -- °F
Precip. -- in
Pressure 30.20 in
Visibility 10.0 miles
Clouds Overcast 1200 ft
Windchill 16 °F
Dew Point 22 °F
Humidity 81%
Rainfall 0.00 in
Snow Depth Not available.
8:01 AM 4:37 PM
Waxing Crescent, 15% visible
METAR KRDR 031458Z AUTO 19011KT 10SM OVC012 M03/M06 A3014 RMK AO2 SLP225 T10281056 57012
Pressure 30.20 in
Visibility 10.0 miles
Clouds Overcast 1200 ft
Windchill 16 °F
Dew Point 22 °F
Humidity 81%
Rainfall 0.00 in
Snow Depth Not available.
8:01 AM 4:37 PM
Waxing Crescent, 15% visible
METAR KRDR 031458Z AUTO 19011KT 10SM OVC012 M03/M06 A3014 RMK AO2 SLP225 T10281056 57012

10-Day Weather Forecast

Almanac

Astronomy

Dec. 03, 2016 Rise Set
Actual Time
Civil Twilight
Nautical Twilight
Astronomical Twilight
Moon
Length of Visible Light
Length of Day
Tomorrow will be .
, % of the Moon is Illuminated

Today's Extremes

State Highs State Lows

Community

WunderPhotos

Upload Photos

1,955,427 photos uploaded!

WunderBlog® & News

Nearby

Air Quality

  Air Quality AQ Index Pollutant
Not available.

Snow Depth

Station Depth Elevation

Earthquake Activity

City Distance Mag. Time & Date
Minimum magnitude displayed is 2.5.

Coastal Water Temperatures

Place Temperature

Stations

Nearby Weather Stations

Station Location Temp. Windchill Dew Point Humidity Wind Precip. Elev Updated Type
                   

Watches & Warnings

There are currently no watches in effect.